MSC Gina — 3FLY9 — position and weather

sailwx.info

Track history (hours):
 
Tides and Currents Weather Stations Pressure Air Temp Water Temp Dewpoint Dewpoint Depression Visibility Wind Speed Wind Dir Waves Ship Positions

MSC Gina

Last reported at 2016-Aug-21 23:34 UTC. Time now 2016-Aug-30 22:32 UTC.
Position N 14°36' W 017°23'.
Warning: this ship's position is 8 days out of date.

Length 259 m; draft 10.8 m.

Type: Ship (hazmat cat A). MMSI: 357542000.

Date/timePositionNaut miles runAvg speedWind from/ knotsBaromVisibWave heightAir tempDewpointWater temp
2016-Aug-21 23:34N 14°36' W 017°23'5 5.3
2016-Aug-21 22:33N 14°41' W 017°26'0 0.2
2016-Aug-21 21:31N 14°41' W 017°26'0 0.0
2016-Aug-21 20:31N 14°41' W 017°26'0 0.0
2016-Aug-21 19:31N 14°41' W 017°26'0 0.0
2016-Aug-21 18:31N 14°41' W 017°26'0 0.0
2016-Aug-21 17:31N 14°41' W 017°26'0 0.0
2016-Aug-21 16:31N 14°41' W 017°26'0 0.0
2016-Aug-21 15:28N 14°41' W 017°26'0 0.0
2016-Aug-21 14:31N 14°41' W 017°26'0 0.0
2016-Aug-21 13:31N 14°41' W 017°26'0 0.0
2016-Aug-21 12:31N 14°41' W 017°26'0 0.0
2016-Aug-21 11:31N 14°41' W 017°26'0 0.0
2016-Aug-21 10:31N 14°41' W 017°26'0 0.0
2016-Aug-21 09:31N 14°41' W 017°26'0 0.0
2016-Aug-21 08:31N 14°41' W 017°26'0 0.0
2016-Aug-21 07:19N 14°41' W 017°26'0 0.0
2016-Aug-21 06:31N 14°41' W 017°26'0 0.0
2016-Aug-21 05:31N 14°41' W 017°26'0 0.0
2016-Aug-21 04:31N 14°41' W 017°26'0 0.0
2016-Aug-21 03:31N 14°41' W 017°26'0 0.0
2016-Aug-21 02:33N 14°41' W 017°26'4 4.0
2016-Aug-21 01:33N 14°39' W 017°22'78118.1
2016-Aug-19 06:22N 27°32' W 015°25'1620.3
2016-Aug-19 05:34N 27°47' W 015°16'1918.7
2016-Aug-19 04:34N 28°05' W 015°21'4 4.2
2016-Aug-19 03:31N 28°08' W 015°25'0 0.0
2016-Aug-19 02:31N 28°08' W 015°25'0 0.0
2016-Aug-19 01:31N 28°08' W 015°25'0 0.0
2016-Aug-19 00:31N 28°08' W 015°25'0 0.0
2016-Aug-18 23:31N 28°08' W 015°25'0 0.0
2016-Aug-18 22:31N 28°08' W 015°25'0 0.0
2016-Aug-18 21:31N 28°08' W 015°25'0 0.0
2016-Aug-18 20:31N 28°08' W 015°25'0 0.0
2016-Aug-18 19:31N 28°08' W 015°25'0 0.0
2016-Aug-18 18:31N 28°08' W 015°25'0 0.0
2016-Aug-18 17:31N 28°08' W 015°25'0 0.0
2016-Aug-18 16:31N 28°08' W 015°25'0 0.0
2016-Aug-18 15:31N 28°08' W 015°25'0 0.0
2016-Aug-18 14:31N 28°08' W 015°25'0 0.0
2016-Aug-18 13:31N 28°08' W 015°25'0 0.0
2016-Aug-18 12:31N 28°08' W 015°25'0 0.0
2016-Aug-18 11:31N 28°08' W 015°25'2 2.4
2016-Aug-18 10:33N 28°07' W 015°22'1615.7
2016-Aug-18 09:33N 28°19' W 015°11'1919.0
2016-Aug-18 08:33N 28°32' W 014°55'1918.7
2016-Aug-18 07:33N 28°46' W 014°40'1919.0
2016-Aug-18 06:33N 28°59' W 014°25'1918.9
2016-Aug-18 05:33N 29°12' W 014°09'1919.3
2016-Aug-18 04:33N 29°26' W 013°55'2019.5
2016-Aug-18 03:33N 29°40' W 013°39'1919.1
2016-Aug-18 02:33N 29°54' W 013°23'1919.3
2016-Aug-18 01:33N 30°07' W 013°07'1919.1
2016-Aug-18 00:33N 30°21' W 012°52'1919.2
2016-Aug-17 23:33N 30°34' W 012°36'1919.3
2016-Aug-17 22:33N 30°49' W 012°21'2019.5
2016-Aug-17 21:33N 31°04' W 012°06'1919.5
2016-Aug-17 20:33N 31°18' W 011°50'2019.7
2016-Aug-17 19:33N 31°31' W 011°33'2019.9
2016-Aug-17 18:33N 31°45' W 011°17'2019.5
2016-Aug-17 17:33N 31°59' W 011°00'1919.3
2016-Aug-17 16:33N 32°12' W 010°44'1919.2
2016-Aug-17 15:33N 32°26' W 010°28'1918.7
2016-Aug-17 14:33N 32°39' W 010°12'1918.6
2016-Aug-17 13:33N 32°52' W 009°57'1918.1
2016-Aug-17 12:30N 33°05' W 009°41'2018.1
2016-Aug-17 11:25N 33°20' W 009°25'2418.5
2016-Aug-17 10:06N 33°37' W 009°05'7118.6
2016-Aug-17 06:19N 34°28' W 008°05'1418.7
2016-Aug-17 05:33N 34°38' W 007°53'1918.8
2016-Aug-17 04:33N 34°51' W 007°37'2018.8
2016-Aug-17 03:31N 35°06' W 007°21'7518.4
2016-Aug-16 23:27N 35°57' W 006°14'1719.5
2016-Aug-16 22:33N 35°57' W 005°53'2019.7
2016-Aug-16 21:33N 36°00' W 005°29'1918.6
2016-Aug-16 20:33N 36°03' W 005°06'7217.6
2016-Aug-16 16:27N 36°16' W 003°38'1717.2
2016-Aug-16 15:29N 36°18' W 003°18'3618.5
2016-Aug-16 13:33N 36°24' W 002°34'4018.6
2016-Aug-16 11:25N 36°41' W 001°50'1618.9
2016-Aug-16 10:33N 36°52' W 001°35'4018.6
2016-Aug-16 08:26N 37°18' W 000°57'2218.1
2016-Aug-16 07:13N 37°33' W 000°36'4717.9
2016-Aug-16 04:33N 38°12' W 000°03'7314.7
2016-Aug-15 23:33N 39°25' W 000°16'3 0.8
2016-Aug-15 19:33N 39°26' W 000°20'0 0.0
2016-Aug-15 18:33N 39°26' W 000°20'0 0.0
2016-Aug-15 17:33N 39°26' W 000°20'0 0.0
2016-Aug-15 16:33N 39°26' W 000°20'0 0.0
2016-Aug-15 15:33N 39°26' W 000°20'0 0.0
2016-Aug-15 14:06N 39°26' W 000°20'0 0.0
2016-Aug-15 13:33N 39°26' W 000°20'0 0.0
2016-Aug-15 12:33N 39°26' W 000°20'0 0.0
2016-Aug-15 11:21N 39°26' W 000°20'0 0.0
2016-Aug-15 07:30N 39°26' W 000°20'0 0.0
2016-Aug-15 06:21N 39°26' W 000°20'0 0.0
2016-Aug-15 04:21N 39°26' W 000°20'0 0.4
2016-Aug-15 03:33N 39°26' W 000°20'0 0.0
2016-Aug-15 02:27N 39°26' W 000°20'0 0.0
2016-Aug-15 01:33N 39°26' W 000°20'0 0.0
2016-Aug-15 00:33N 39°26' W 000°20'0 0.0
2016-Aug-14 23:33N 39°26' W 000°20'0 0.0
2016-Aug-14 22:33N 39°26' W 000°20'0 0.0
2016-Aug-14 21:30N 39°26' W 000°20'0 0.0
2016-Aug-14 20:34N 39°26' W 000°20'3 3.5
2016-Aug-14 19:33N 39°25' W 000°15'1 0.2
2016-Aug-14 14:30N 39°24' W 000°17'0 0.1
2016-Aug-14 10:33N 39°24' W 000°16'0 0.0
2016-Aug-14 09:30N 39°24' W 000°16'0 0.0
2016-Aug-14 08:33N 39°24' W 000°16'0 0.0
2016-Aug-14 07:30N 39°24' W 000°16'0 0.0
2016-Aug-14 04:30N 39°24' W 000°16'0 0.0
2016-Aug-14 03:33N 39°24' W 000°16'0 0.1
2016-Aug-13 23:33N 39°24' W 000°16'0 0.1
2016-Aug-13 22:30N 39°24' W 000°16'1 1.2
2016-Aug-13 21:30N 39°25' W 000°16'7 7.8
2016-Aug-13 20:33N 39°31' W 000°10'4318.7
2016-Aug-13 18:15N 40°01' E 000°31'1718.6
2016-Aug-13 17:20N 40°12' E 000°47'2118.6
2016-Aug-13 16:12N 40°26' E 001°09'1218.6
2016-Aug-13 15:33N 40°34' E 001°21'1918.8
2016-Aug-13 14:33N 40°46' E 001°39'1818.6
2016-Aug-13 13:33N 40°58' E 001°58'1918.5
2016-Aug-13 12:33N 41°10' E 002°16'1818.0
2016-Aug-13 11:33N 41°22' E 002°34'1918.2
2016-Aug-13 10:30N 41°35' E 002°53'1718.5
2016-Aug-13 09:33N 41°45' E 003°12'1818.3
2016-Aug-13 08:33N 41°58' E 003°30'1918.9
2016-Aug-13 07:33N 42°11' E 003°48'1918.8
2016-Aug-13 06:33N 42°25' E 004°05'1919.0
2016-Aug-13 05:33N 42°39' E 004°22'1918.7
2016-Aug-13 04:33N 42°54' E 004°39'1818.6
2016-Aug-13 03:33N 43°08' E 004°55'1515.0
2016-Aug-13 02:34N 43°22' E 004°57'6 5.4
2016-Aug-13 01:29N 43°25' E 004°50'0 0.0
2016-Aug-13 00:29N 43°25' E 004°50'0 0.0
2016-Aug-12 23:29N 43°25' E 004°50'0 0.0
2016-Aug-12 22:32N 43°25' E 004°50'0 0.0
2016-Aug-12 21:32N 43°25' E 004°50'0 0.0
2016-Aug-12 20:32N 43°25' E 004°50'0 0.0
2016-Aug-12 19:32N 43°25' E 004°50'0 0.0
2016-Aug-12 18:32N 43°25' E 004°50'0 0.0
2016-Aug-12 17:32N 43°25' E 004°50'0 0.0
2016-Aug-12 16:32N 43°25' E 004°50'0 0.0
2016-Aug-12 15:32N 43°25' E 004°50'0 0.0
2016-Aug-12 14:29N 43°25' E 004°50'0 0.0
2016-Aug-12 13:32N 43°25' E 004°50'0 0.0
2016-Aug-12 12:32N 43°25' E 004°50'0 0.0
2016-Aug-12 11:32N 43°25' E 004°50'0 0.0
2016-Aug-12 10:29N 43°25' E 004°50'4 3.8
2016-Aug-12 09:33N 43°24' E 004°55'1312.5
2016-Aug-12 08:33N 43°13' E 005°02'  
Track history (hours):
 
Tides and Currents Weather Stations Pressure Air Temp Water Temp Dewpoint Dewpoint Depression Visibility Wind Speed Wind Dir Waves Ship Positions

MSC Gina

Last reported at 2016-Aug-21 23:34 UTC. Time now 2016-Aug-30 22:32 UTC.
Position N 14°36' W 017°23'.
Warning: this ship's position is 8 days out of date.

Length 259 m; draft 10.8 m.

Type: Ship (hazmat cat A). MMSI: 357542000.

Date/timePositionNaut miles runAvg speedWind from/ knotsBaromVisibWave heightAir tempDewpointWater temp
2016-Aug-21 23:34N 14°36' W 017°23'5 5.3
2016-Aug-21 22:33N 14°41' W 017°26'0 0.2
2016-Aug-21 21:31N 14°41' W 017°26'0 0.0
2016-Aug-21 20:31N 14°41' W 017°26'0 0.0
2016-Aug-21 19:31N 14°41' W 017°26'0 0.0
2016-Aug-21 18:31N 14°41' W 017°26'0 0.0
2016-Aug-21 17:31N 14°41' W 017°26'0 0.0
2016-Aug-21 16:31N 14°41' W 017°26'0 0.0
2016-Aug-21 15:28N 14°41' W 017°26'0 0.0
2016-Aug-21 14:31N 14°41' W 017°26'0 0.0
2016-Aug-21 13:31N 14°41' W 017°26'0 0.0
2016-Aug-21 12:31N 14°41' W 017°26'0 0.0
2016-Aug-21 11:31N 14°41' W 017°26'0 0.0
2016-Aug-21 10:31N 14°41' W 017°26'0 0.0
2016-Aug-21 09:31N 14°41' W 017°26'0 0.0
2016-Aug-21 08:31N 14°41' W 017°26'0 0.0
2016-Aug-21 07:19N 14°41' W 017°26'0 0.0
2016-Aug-21 06:31N 14°41' W 017°26'0 0.0
2016-Aug-21 05:31N 14°41' W 017°26'0 0.0
2016-Aug-21 04:31N 14°41' W 017°26'0 0.0
2016-Aug-21 03:31N 14°41' W 017°26'0 0.0
2016-Aug-21 02:33N 14°41' W 017°26'4 4.0
2016-Aug-21 01:33N 14°39' W 017°22'78118.1
2016-Aug-19 06:22N 27°32' W 015°25'1620.3
2016-Aug-19 05:34N 27°47' W 015°16'1918.7
2016-Aug-19 04:34N 28°05' W 015°21'4 4.2
2016-Aug-19 03:31N 28°08' W 015°25'0 0.0
2016-Aug-19 02:31N 28°08' W 015°25'0 0.0
2016-Aug-19 01:31N 28°08' W 015°25'0 0.0
2016-Aug-19 00:31N 28°08' W 015°25'0 0.0
2016-Aug-18 23:31N 28°08' W 015°25'0 0.0
2016-Aug-18 22:31N 28°08' W 015°25'0 0.0
2016-Aug-18 21:31N 28°08' W 015°25'0 0.0
2016-Aug-18 20:31N 28°08' W 015°25'0 0.0
2016-Aug-18 19:31N 28°08' W 015°25'0 0.0
2016-Aug-18 18:31N 28°08' W 015°25'0 0.0
2016-Aug-18 17:31N 28°08' W 015°25'0 0.0
2016-Aug-18 16:31N 28°08' W 015°25'0 0.0
2016-Aug-18 15:31N 28°08' W 015°25'0 0.0
2016-Aug-18 14:31N 28°08' W 015°25'0 0.0
2016-Aug-18 13:31N 28°08' W 015°25'0 0.0
2016-Aug-18 12:31N 28°08' W 015°25'0 0.0
2016-Aug-18 11:31N 28°08' W 015°25'2 2.4
2016-Aug-18 10:33N 28°07' W 015°22'1615.7
2016-Aug-18 09:33N 28°19' W 015°11'1919.0
2016-Aug-18 08:33N 28°32' W 014°55'1918.7
2016-Aug-18 07:33N 28°46' W 014°40'1919.0
2016-Aug-18 06:33N 28°59' W 014°25'1918.9
2016-Aug-18 05:33N 29°12' W 014°09'1919.3
2016-Aug-18 04:33N 29°26' W 013°55'2019.5
2016-Aug-18 03:33N 29°40' W 013°39'1919.1
2016-Aug-18 02:33N 29°54' W 013°23'1919.3
2016-Aug-18 01:33N 30°07' W 013°07'1919.1
2016-Aug-18 00:33N 30°21' W 012°52'1919.2
2016-Aug-17 23:33N 30°34' W 012°36'1919.3
2016-Aug-17 22:33N 30°49' W 012°21'2019.5
2016-Aug-17 21:33N 31°04' W 012°06'1919.5
2016-Aug-17 20:33N 31°18' W 011°50'2019.7
2016-Aug-17 19:33N 31°31' W 011°33'2019.9
2016-Aug-17 18:33N 31°45' W 011°17'2019.5
2016-Aug-17 17:33N 31°59' W 011°00'1919.3
2016-Aug-17 16:33N 32°12' W 010°44'1919.2
2016-Aug-17 15:33N 32°26' W 010°28'1918.7
2016-Aug-17 14:33N 32°39' W 010°12'1918.6
2016-Aug-17 13:33N 32°52' W 009°57'1918.1
2016-Aug-17 12:30N 33°05' W 009°41'2018.1
2016-Aug-17 11:25N 33°20' W 009°25'2418.5
2016-Aug-17 10:06N 33°37' W 009°05'7118.6
2016-Aug-17 06:19N 34°28' W 008°05'1418.7
2016-Aug-17 05:33N 34°38' W 007°53'1918.8
2016-Aug-17 04:33N 34°51' W 007°37'2018.8
2016-Aug-17 03:31N 35°06' W 007°21'7518.4
2016-Aug-16 23:27N 35°57' W 006°14'1719.5
2016-Aug-16 22:33N 35°57' W 005°53'2019.7
2016-Aug-16 21:33N 36°00' W 005°29'1918.6
2016-Aug-16 20:33N 36°03' W 005°06'7217.6
2016-Aug-16 16:27N 36°16' W 003°38'1717.2
2016-Aug-16 15:29N 36°18' W 003°18'3618.5
2016-Aug-16 13:33N 36°24' W 002°34'4018.6
2016-Aug-16 11:25N 36°41' W 001°50'1618.9
2016-Aug-16 10:33N 36°52' W 001°35'4018.6
2016-Aug-16 08:26N 37°18' W 000°57'2218.1
2016-Aug-16 07:13N 37°33' W 000°36'4717.9
2016-Aug-16 04:33N 38°12' W 000°03'7314.7
2016-Aug-15 23:33N 39°25' W 000°16'3 0.8
2016-Aug-15 19:33N 39°26' W 000°20'0 0.0
2016-Aug-15 18:33N 39°26' W 000°20'0 0.0
2016-Aug-15 17:33N 39°26' W 000°20'0 0.0
2016-Aug-15 16:33N 39°26' W 000°20'0 0.0
2016-Aug-15 15:33N 39°26' W 000°20'0 0.0
2016-Aug-15 14:06N 39°26' W 000°20'0 0.0
2016-Aug-15 13:33N 39°26' W 000°20'0 0.0
2016-Aug-15 12:33N 39°26' W 000°20'0 0.0
2016-Aug-15 11:21N 39°26' W 000°20'0 0.0
2016-Aug-15 07:30N 39°26' W 000°20'0 0.0
2016-Aug-15 06:21N 39°26' W 000°20'0 0.0
2016-Aug-15 04:21N 39°26' W 000°20'0 0.4
2016-Aug-15 03:33N 39°26' W 000°20'0 0.0
2016-Aug-15 02:27N 39°26' W 000°20'0 0.0
2016-Aug-15 01:33N 39°26' W 000°20'0 0.0
2016-Aug-15 00:33N 39°26' W 000°20'0 0.0
2016-Aug-14 23:33N 39°26' W 000°20'0 0.0
2016-Aug-14 22:33N 39°26' W 000°20'0 0.0
2016-Aug-14 21:30N 39°26' W 000°20'0 0.0
2016-Aug-14 20:34N 39°26' W 000°20'3 3.5
2016-Aug-14 19:33N 39°25' W 000°15'1 0.2
2016-Aug-14 14:30N 39°24' W 000°17'0 0.1
2016-Aug-14 10:33N 39°24' W 000°16'0 0.0
2016-Aug-14 09:30N 39°24' W 000°16'0 0.0
2016-Aug-14 08:33N 39°24' W 000°16'0 0.0
2016-Aug-14 07:30N 39°24' W 000°16'0 0.0
2016-Aug-14 04:30N 39°24' W 000°16'0 0.0
2016-Aug-14 03:33N 39°24' W 000°16'0 0.1
2016-Aug-13 23:33N 39°24' W 000°16'0 0.1
2016-Aug-13 22:30N 39°24' W 000°16'1 1.2
2016-Aug-13 21:30N 39°25' W 000°16'7 7.8
2016-Aug-13 20:33N 39°31' W 000°10'4318.7
2016-Aug-13 18:15N 40°01' E 000°31'1718.6
2016-Aug-13 17:20N 40°12' E 000°47'2118.6
2016-Aug-13 16:12N 40°26' E 001°09'1218.6
2016-Aug-13 15:33N 40°34' E 001°21'1918.8
2016-Aug-13 14:33N 40°46' E 001°39'1818.6
2016-Aug-13 13:33N 40°58' E 001°58'1918.5
2016-Aug-13 12:33N 41°10' E 002°16'1818.0
2016-Aug-13 11:33N 41°22' E 002°34'1918.2
2016-Aug-13 10:30N 41°35' E 002°53'1718.5
2016-Aug-13 09:33N 41°45' E 003°12'1818.3
2016-Aug-13 08:33N 41°58' E 003°30'1918.9
2016-Aug-13 07:33N 42°11' E 003°48'1918.8
2016-Aug-13 06:33N 42°25' E 004°05'1919.0
2016-Aug-13 05:33N 42°39' E 004°22'1918.7
2016-Aug-13 04:33N 42°54' E 004°39'1818.6
2016-Aug-13 03:33N 43°08' E 004°55'1515.0
2016-Aug-13 02:34N 43°22' E 004°57'6 5.4
2016-Aug-13 01:29N 43°25' E 004°50'0 0.0
2016-Aug-13 00:29N 43°25' E 004°50'0 0.0
2016-Aug-12 23:29N 43°25' E 004°50'0 0.0
2016-Aug-12 22:32N 43°25' E 004°50'0 0.0
2016-Aug-12 21:32N 43°25' E 004°50'0 0.0
2016-Aug-12 20:32N 43°25' E 004°50'0 0.0
2016-Aug-12 19:32N 43°25' E 004°50'0 0.0
2016-Aug-12 18:32N 43°25' E 004°50'0 0.0
2016-Aug-12 17:32N 43°25' E 004°50'0 0.0
2016-Aug-12 16:32N 43°25' E 004°50'0 0.0
2016-Aug-12 15:32N 43°25' E 004°50'0 0.0
2016-Aug-12 14:29N 43°25' E 004°50'0 0.0
2016-Aug-12 13:32N 43°25' E 004°50'0 0.0
2016-Aug-12 12:32N 43°25' E 004°50'0 0.0
2016-Aug-12 11:32N 43°25' E 004°50'0 0.0
2016-Aug-12 10:29N 43°25' E 004°50'4 3.8
2016-Aug-12 09:33N 43°24' E 004°55'1312.5
2016-Aug-12 08:33N 43°13' E 005°02'  

Dump ship's entire track history